sensor_id;sensor_type;location;lat;lon;timestamp;temperature;humidity
5723;DHT22;2886;49.722;8.612;2023-04-06T00:02:05;2.50;91.50
5723;DHT22;2886;49.722;8.612;2023-04-06T00:04:30;2.50;91.60
5723;DHT22;2886;49.722;8.612;2023-04-06T00:06:56;2.50;91.80
5723;DHT22;2886;49.722;8.612;2023-04-06T00:09:22;2.50;91.90
5723;DHT22;2886;49.722;8.612;2023-04-06T00:11:47;2.50;92.00
5723;DHT22;2886;49.722;8.612;2023-04-06T00:14:13;2.50;92.40
5723;DHT22;2886;49.722;8.612;2023-04-06T00:16:39;2.60;92.30
5723;DHT22;2886;49.722;8.612;2023-04-06T00:19:04;2.60;92.50
5723;DHT22;2886;49.722;8.612;2023-04-06T00:21:30;2.60;92.20
5723;DHT22;2886;49.722;8.612;2023-04-06T00:23:56;2.60;92.80
5723;DHT22;2886;49.722;8.612;2023-04-06T00:26:22;2.60;92.80
5723;DHT22;2886;49.722;8.612;2023-04-06T00:28:47;2.50;92.80
5723;DHT22;2886;49.722;8.612;2023-04-06T00:31:15;2.60;93.40
5723;DHT22;2886;49.722;8.612;2023-04-06T00:33:41;2.70;93.40
5723;DHT22;2886;49.722;8.612;2023-04-06T00:36:06;2.70;93.30
5723;DHT22;2886;49.722;8.612;2023-04-06T00:38:32;2.80;93.30
5723;DHT22;2886;49.722;8.612;2023-04-06T00:40:58;2.80;93.30
5723;DHT22;2886;49.722;8.612;2023-04-06T00:43:23;2.90;93.30
5723;DHT22;2886;49.722;8.612;2023-04-06T00:45:49;3.00;92.90
5723;DHT22;2886;49.722;8.612;2023-04-06T00:48:16;3.00;92.60
5723;DHT22;2886;49.722;8.612;2023-04-06T00:50:42;3.00;92.50
5723;DHT22;2886;49.722;8.612;2023-04-06T00:53:07;3.00;92.40
5723;DHT22;2886;49.722;8.612;2023-04-06T00:55:33;2.90;92.60
5723;DHT22;2886;49.722;8.612;2023-04-06T00:58:01;2.90;92.70
5723;DHT22;2886;49.722;8.612;2023-04-06T01:00:27;2.80;92.80
5723;DHT22;2886;49.722;8.612;2023-04-06T01:02:53;2.70;92.90
5723;DHT22;2886;49.722;8.612;2023-04-06T01:05:19;2.60;93.40
5723;DHT22;2886;49.722;8.612;2023-04-06T01:07:45;2.60;93.60
5723;DHT22;2886;49.722;8.612;2023-04-06T01:10:10;2.40;94.10
5723;DHT22;2886;49.722;8.612;2023-04-06T01:12:36;2.40;94.10
5723;DHT22;2886;49.722;8.612;2023-04-06T01:15:04;2.40;94.00
5723;DHT22;2886;49.722;8.612;2023-04-06T01:17:31;2.30;94.50
5723;DHT22;2886;49.722;8.612;2023-04-06T01:19:57;2.20;94.50
5723;DHT22;2886;49.722;8.612;2023-04-06T01:22:24;2.20;95.00
5723;DHT22;2886;49.722;8.612;2023-04-06T01:24:49;2.20;94.70
5723;DHT22;2886;49.722;8.612;2023-04-06T01:27:15;2.10;94.70
5723;DHT22;2886;49.722;8.612;2023-04-06T01:29:41;2.10;94.90
5723;DHT22;2886;49.722;8.612;2023-04-06T01:32:07;2.10;94.90
5723;DHT22;2886;49.722;8.612;2023-04-06T01:34:33;2.00;94.80
5723;DHT22;2886;49.722;8.612;2023-04-06T01:36:58;2.00;94.60
5723;DHT22;2886;49.722;8.612;2023-04-06T01:39:24;2.00;94.60
5723;DHT22;2886;49.722;8.612;2023-04-06T01:41:50;1.90;94.70
5723;DHT22;2886;49.722;8.612;2023-04-06T01:44:17;2.00;95.60
5723;DHT22;2886;49.722;8.612;2023-04-06T01:46:44;2.00;95.50
5723;DHT22;2886;49.722;8.612;2023-04-06T01:49:10;1.90;95.50
5723;DHT22;2886;49.722;8.612;2023-04-06T01:51:36;1.90;95.20
5723;DHT22;2886;49.722;8.612;2023-04-06T01:54:02;1.90;95.30
5723;DHT22;2886;49.722;8.612;2023-04-06T01:56:27;1.80;95.50
5723;DHT22;2886;49.722;8.612;2023-04-06T01:58:53;1.80;95.50
5723;DHT22;2886;49.722;8.612;2023-04-06T02:01:19;1.70;95.60
5723;DHT22;2886;49.722;8.612;2023-04-06T02:03:46;1.70;95.80
5723;DHT22;2886;49.722;8.612;2023-04-06T02:06:12;1.70;96.10
5723;DHT22;2886;49.722;8.612;2023-04-06T02:08:38;1.70;96.30
5723;DHT22;2886;49.722;8.612;2023-04-06T02:11:04;1.60;96.30
5723;DHT22;2886;49.722;8.612;2023-04-06T02:13:29;1.60;96.40
5723;DHT22;2886;49.722;8.612;2023-04-06T02:15:55;1.60;96.80
5723;DHT22;2886;49.722;8.612;2023-04-06T02:18:22;1.60;96.90
5723;DHT22;2886;49.722;8.612;2023-04-06T02:20:48;1.50;97.10
5723;DHT22;2886;49.722;8.612;2023-04-06T02:23:14;1.50;97.10
5723;DHT22;2886;49.722;8.612;2023-04-06T02:25:40;1.50;97.40
5723;DHT22;2886;49.722;8.612;2023-04-06T02:28:06;1.40;97.40
5723;DHT22;2886;49.722;8.612;2023-04-06T02:30:32;1.40;97.90
5723;DHT22;2886;49.722;8.612;2023-04-06T02:33:02;1.40;98.00
5723;DHT22;2886;49.722;8.612;2023-04-06T02:35:29;1.40;98.20
5723;DHT22;2886;49.722;8.612;2023-04-06T02:37:55;1.40;98.10
5723;DHT22;2886;49.722;8.612;2023-04-06T02:40:21;1.30;98.20
5723;DHT22;2886;49.722;8.612;2023-04-06T02:42:48;1.30;98.50
5723;DHT22;2886;49.722;8.612;2023-04-06T02:45:14;1.30;98.50
5723;DHT22;2886;49.722;8.612;2023-04-06T02:47:41;1.20;98.70
5723;DHT22;2886;49.722;8.612;2023-04-06T02:50:07;1.20;99.50
5723;DHT22;2886;49.722;8.612;2023-04-06T02:52:33;1.20;99.50
5723;DHT22;2886;49.722;8.612;2023-04-06T02:54:58;1.20;99.60
5723;DHT22;2886;49.722;8.612;2023-04-06T02:57:25;1.20;99.90
5723;DHT22;2886;49.722;8.612;2023-04-06T02:59:51;1.10;99.90
5723;DHT22;2886;49.722;8.612;2023-04-06T03:02:17;1.10;99.90
5723;DHT22;2886;49.722;8.612;2023-04-06T03:04:43;1.20;99.90
5723;DHT22;2886;49.722;8.612;2023-04-06T03:07:09;1.10;99.90
5723;DHT22;2886;49.722;8.612;2023-04-06T03:09:36;1.10;99.90
5723;DHT22;2886;49.722;8.612;2023-04-06T03:12:03;1.10;99.90
5723;DHT22;2886;49.722;8.612;2023-04-06T03:14:29;1.10;99.90
5723;DHT22;2886;49.722;8.612;2023-04-06T03:16:55;1.00;99.90
5723;DHT22;2886;49.722;8.612;2023-04-06T03:19:21;1.00;99.90
5723;DHT22;2886;49.722;8.612;2023-04-06T03:21:46;1.00;99.90
5723;DHT22;2886;49.722;8.612;2023-04-06T03:24:12;1.00;99.90
5723;DHT22;2886;49.722;8.612;2023-04-06T03:26:39;1.00;99.90
5723;DHT22;2886;49.722;8.612;2023-04-06T03:29:05;1.00;99.90
5723;DHT22;2886;49.722;8.612;2023-04-06T03:31:31;1.00;99.90
5723;DHT22;2886;49.722;8.612;2023-04-06T03:33:56;1.00;99.90
5723;DHT22;2886;49.722;8.612;2023-04-06T03:36:22;1.00;99.90
5723;DHT22;2886;49.722;8.612;2023-04-06T03:41:30;1.00;99.90
5723;DHT22;2886;49.722;8.612;2023-04-06T03:43:56;0.90;99.90
5723;DHT22;2886;49.722;8.612;2023-04-06T03:46:22;0.80;99.90
5723;DHT22;2886;49.722;8.612;2023-04-06T03:48:48;0.80;99.90
5723;DHT22;2886;49.722;8.612;2023-04-06T03:51:15;0.80;99.90
5723;DHT22;2886;49.722;8.612;2023-04-06T03:53:40;0.70;99.90
5723;DHT22;2886;49.722;8.612;2023-04-06T03:56:06;0.70;99.90
5723;DHT22;2886;49.722;8.612;2023-04-06T03:58:34;0.70;99.90
5723;DHT22;2886;49.722;8.612;2023-04-06T04:01:00;0.80;99.90
5723;DHT22;2886;49.722;8.612;2023-04-06T04:03:27;0.80;99.90
5723;DHT22;2886;49.722;8.612;2023-04-06T04:05:53;0.70;99.90
5723;DHT22;2886;49.722;8.612;2023-04-06T04:08:21;0.70;99.90
5723;DHT22;2886;49.722;8.612;2023-04-06T04:10:46;0.70;99.90
5723;DHT22;2886;49.722;8.612;2023-04-06T04:13:12;0.70;99.90
5723;DHT22;2886;49.722;8.612;2023-04-06T04:15:38;0.70;99.90
5723;DHT22;2886;49.722;8.612;2023-04-06T04:18:03;0.70;99.90
5723;DHT22;2886;49.722;8.612;2023-04-06T04:20:29;0.60;99.90
5723;DHT22;2886;49.722;8.612;2023-04-06T04:22:54;0.70;99.90
5723;DHT22;2886;49.722;8.612;2023-04-06T04:25:20;0.70;99.90
5723;DHT22;2886;49.722;8.612;2023-04-06T04:27:46;0.60;99.90
5723;DHT22;2886;49.722;8.612;2023-04-06T04:30:12;0.60;99.90
5723;DHT22;2886;49.722;8.612;2023-04-06T04:32:37;0.50;99.90
5723;DHT22;2886;49.722;8.612;2023-04-06T04:35:03;0.40;99.90
5723;DHT22;2886;49.722;8.612;2023-04-06T04:37:29;0.30;99.90
5723;DHT22;2886;49.722;8.612;2023-04-06T04:39:54;0.40;99.90
5723;DHT22;2886;49.722;8.612;2023-04-06T04:42:20;0.40;99.90
5723;DHT22;2886;49.722;8.612;2023-04-06T04:44:45;0.40;99.90
5723;DHT22;2886;49.722;8.612;2023-04-06T04:47:11;0.30;99.90
5723;DHT22;2886;49.722;8.612;2023-04-06T04:49:37;0.30;99.90
5723;DHT22;2886;49.722;8.612;2023-04-06T04:52:02;0.40;99.90
5723;DHT22;2886;49.722;8.612;2023-04-06T04:54:28;0.40;99.90
5723;DHT22;2886;49.722;8.612;2023-04-06T04:56:53;0.40;99.90
5723;DHT22;2886;49.722;8.612;2023-04-06T04:59:19;0.50;99.90
5723;DHT22;2886;49.722;8.612;2023-04-06T05:01:45;0.50;99.90
5723;DHT22;2886;49.722;8.612;2023-04-06T05:04:10;0.50;99.90
5723;DHT22;2886;49.722;8.612;2023-04-06T05:06:36;0.50;99.90
5723;DHT22;2886;49.722;8.612;2023-04-06T05:09:02;0.40;99.90
5723;DHT22;2886;49.722;8.612;2023-04-06T05:11:27;0.50;99.90
5723;DHT22;2886;49.722;8.612;2023-04-06T05:13:53;0.50;99.90
5723;DHT22;2886;49.722;8.612;2023-04-06T05:16:19;0.50;99.90
5723;DHT22;2886;49.722;8.612;2023-04-06T05:18:44;0.50;99.90
5723;DHT22;2886;49.722;8.612;2023-04-06T05:21:11;0.50;99.90
5723;DHT22;2886;49.722;8.612;2023-04-06T05:23:37;0.60;99.90
5723;DHT22;2886;49.722;8.612;2023-04-06T05:26:02;0.70;99.90
5723;DHT22;2886;49.722;8.612;2023-04-06T05:28:34;0.70;99.90
5723;DHT22;2886;49.722;8.612;2023-04-06T05:31:01;0.70;99.90
5723;DHT22;2886;49.722;8.612;2023-04-06T05:33:27;0.80;99.90
5723;DHT22;2886;49.722;8.612;2023-04-06T05:35:52;1.00;99.90
5723;DHT22;2886;49.722;8.612;2023-04-06T05:38:18;1.20;99.90
5723;DHT22;2886;49.722;8.612;2023-04-06T05:40:44;1.30;99.90
5723;DHT22;2886;49.722;8.612;2023-04-06T05:43:09;1.50;99.90
5723;DHT22;2886;49.722;8.612;2023-04-06T05:45:35;1.70;99.90
5723;DHT22;2886;49.722;8.612;2023-04-06T05:48:02;1.90;98.50
5723;DHT22;2886;49.722;8.612;2023-04-06T05:50:28;2.00;97.50
5723;DHT22;2886;49.722;8.612;2023-04-06T05:52:54;2.10;97.00
5723;DHT22;2886;49.722;8.612;2023-04-06T05:55:19;2.20;97.00
5723;DHT22;2886;49.722;8.612;2023-04-06T05:57:45;2.20;97.00
5723;DHT22;2886;49.722;8.612;2023-04-06T06:00:11;2.20;97.00
5723;DHT22;2886;49.722;8.612;2023-04-06T06:02:37;2.30;96.60
5723;DHT22;2886;49.722;8.612;2023-04-06T06:05:03;2.30;96.10
5723;DHT22;2886;49.722;8.612;2023-04-06T06:07:28;2.40;95.70
5723;DHT22;2886;49.722;8.612;2023-04-06T06:09:58;2.40;95.60
5723;DHT22;2886;49.722;8.612;2023-04-06T06:12:23;2.50;95.70
5723;DHT22;2886;49.722;8.612;2023-04-06T06:14:49;2.40;95.30
5723;DHT22;2886;49.722;8.612;2023-04-06T06:17:15;2.50;95.10
5723;DHT22;2886;49.722;8.612;2023-04-06T06:19:40;2.50;95.00
5723;DHT22;2886;49.722;8.612;2023-04-06T06:22:06;2.60;95.30
5723;DHT22;2886;49.722;8.612;2023-04-06T06:24:32;2.60;95.60
5723;DHT22;2886;49.722;8.612;2023-04-06T06:26:58;2.70;96.00
5723;DHT22;2886;49.722;8.612;2023-04-06T06:29:24;2.80;95.90
5723;DHT22;2886;49.722;8.612;2023-04-06T06:31:49;2.90;96.20
5723;DHT22;2886;49.722;8.612;2023-04-06T06:34:15;3.00;96.40
5723;DHT22;2886;49.722;8.612;2023-04-06T06:36:41;3.10;96.60
5723;DHT22;2886;49.722;8.612;2023-04-06T06:39:06;3.20;96.60
5723;DHT22;2886;49.722;8.612;2023-04-06T06:41:32;3.40;96.60
5723;DHT22;2886;49.722;8.612;2023-04-06T06:43:58;3.60;95.70
5723;DHT22;2886;49.722;8.612;2023-04-06T06:46:23;3.70;95.60
5723;DHT22;2886;49.722;8.612;2023-04-06T06:48:49;3.90;94.70
5723;DHT22;2886;49.722;8.612;2023-04-06T06:51:15;4.10;94.30
5723;DHT22;2886;49.722;8.612;2023-04-06T06:53:40;4.20;93.50
5723;DHT22;2886;49.722;8.612;2023-04-06T06:56:06;4.40;92.40
5723;DHT22;2886;49.722;8.612;2023-04-06T06:58:32;4.60;91.70
5723;DHT22;2886;49.722;8.612;2023-04-06T07:00:58;4.80;87.20
5723;DHT22;2886;49.722;8.612;2023-04-06T07:03:24;5.10;85.20
5723;DHT22;2886;49.722;8.612;2023-04-06T07:05:50;5.40;81.80
5723;DHT22;2886;49.722;8.612;2023-04-06T07:08:20;5.70;74.40
5723;DHT22;2886;49.722;8.612;2023-04-06T07:10:46;5.90;69.90
5723;DHT22;2886;49.722;8.612;2023-04-06T07:13:11;6.20;67.30
5723;DHT22;2886;49.722;8.612;2023-04-06T07:15:37;6.40;64.40
5723;DHT22;2886;49.722;8.612;2023-04-06T07:18:03;6.60;65.10
5723;DHT22;2886;49.722;8.612;2023-04-06T07:20:28;6.80;64.40
5723;DHT22;2886;49.722;8.612;2023-04-06T07:22:54;7.00;62.00
5723;DHT22;2886;49.722;8.612;2023-04-06T07:25:20;7.10;60.30
5723;DHT22;2886;49.722;8.612;2023-04-06T07:27:46;7.30;59.90
5723;DHT22;2886;49.722;8.612;2023-04-06T07:30:13;7.50;59.20
5723;DHT22;2886;49.722;8.612;2023-04-06T07:32:39;7.60;57.60
5723;DHT22;2886;49.722;8.612;2023-04-06T07:35:05;7.80;58.10
5723;DHT22;2886;49.722;8.612;2023-04-06T07:37:31;7.90;57.20
5723;DHT22;2886;49.722;8.612;2023-04-06T07:39:56;8.10;57.10
5723;DHT22;2886;49.722;8.612;2023-04-06T07:42:22;8.30;57.90
5723;DHT22;2886;49.722;8.612;2023-04-06T07:44:48;8.40;55.50
5723;DHT22;2886;49.722;8.612;2023-04-06T07:47:14;8.60;54.70
5723;DHT22;2886;49.722;8.612;2023-04-06T07:49:39;8.60;53.20
5723;DHT22;2886;49.722;8.612;2023-04-06T07:52:05;8.80;53.20
5723;DHT22;2886;49.722;8.612;2023-04-06T07:54:31;8.90;51.60
5723;DHT22;2886;49.722;8.612;2023-04-06T07:56:56;9.00;53.40
5723;DHT22;2886;49.722;8.612;2023-04-06T07:59:22;9.10;51.00
5723;DHT22;2886;49.722;8.612;2023-04-06T08:01:47;9.10;50.00
5723;DHT22;2886;49.722;8.612;2023-04-06T08:04:14;9.20;49.70
5723;DHT22;2886;49.722;8.612;2023-04-06T08:06:39;9.20;49.70
5723;DHT22;2886;49.722;8.612;2023-04-06T08:09:06;9.30;49.90
5723;DHT22;2886;49.722;8.612;2023-04-06T08:11:31;9.40;50.10
5723;DHT22;2886;49.722;8.612;2023-04-06T08:13:57;9.50;50.00
5723;DHT22;2886;49.722;8.612;2023-04-06T08:16:24;9.60;50.60
5723;DHT22;2886;49.722;8.612;2023-04-06T08:18:49;9.80;51.20
5723;DHT22;2886;49.722;8.612;2023-04-06T08:21:15;10.00;50.50
5723;DHT22;2886;49.722;8.612;2023-04-06T08:23:41;10.20;50.20
5723;DHT22;2886;49.722;8.612;2023-04-06T08:26:07;10.30;49.40
5723;DHT22;2886;49.722;8.612;2023-04-06T08:28:32;10.30;48.90
5723;DHT22;2886;49.722;8.612;2023-04-06T08:31:05;10.40;48.90
5723;DHT22;2886;49.722;8.612;2023-04-06T08:33:31;10.60;49.30
5723;DHT22;2886;49.722;8.612;2023-04-06T08:35:57;10.80;48.30
5723;DHT22;2886;49.722;8.612;2023-04-06T08:38:23;10.90;47.40
5723;DHT22;2886;49.722;8.612;2023-04-06T08:40:49;10.90;47.40
5723;DHT22;2886;49.722;8.612;2023-04-06T08:43:17;11.00;47.50
5723;DHT22;2886;49.722;8.612;2023-04-06T08:45:44;11.20;46.30
5723;DHT22;2886;49.722;8.612;2023-04-06T08:48:11;11.20;46.30
5723;DHT22;2886;49.722;8.612;2023-04-06T08:50:38;11.20;44.90
5723;DHT22;2886;49.722;8.612;2023-04-06T08:53:05;11.20;44.90
5723;DHT22;2886;49.722;8.612;2023-04-06T08:55:31;11.30;44.90
5723;DHT22;2886;49.722;8.612;2023-04-06T08:57:59;11.40;45.00
5723;DHT22;2886;49.722;8.612;2023-04-06T09:00:25;11.60;44.30
5723;DHT22;2886;49.722;8.612;2023-04-06T09:02:53;11.70;43.50
5723;DHT22;2886;49.722;8.612;2023-04-06T09:05:20;11.80;44.20
5723;DHT22;2886;49.722;8.612;2023-04-06T09:07:46;11.90;43.70
5723;DHT22;2886;49.722;8.612;2023-04-06T09:10:12;12.00;43.40
5723;DHT22;2886;49.722;8.612;2023-04-06T09:12:38;12.20;42.10
5723;DHT22;2886;49.722;8.612;2023-04-06T09:15:04;12.10;41.80
5723;DHT22;2886;49.722;8.612;2023-04-06T09:17:32;12.20;42.00
5723;DHT22;2886;49.722;8.612;2023-04-06T09:20:00;12.20;41.50
5723;DHT22;2886;49.722;8.612;2023-04-06T09:22:34;12.30;40.90
5723;DHT22;2886;49.722;8.612;2023-04-06T09:25:00;12.50;40.90
5723;DHT22;2886;49.722;8.612;2023-04-06T09:27:33;12.80;40.80
5723;DHT22;2886;49.722;8.612;2023-04-06T09:30:10;12.90;39.90
5723;DHT22;2886;49.722;8.612;2023-04-06T09:32:56;12.90;40.40
5723;DHT22;2886;49.722;8.612;2023-04-06T09:35:22;13.10;41.60
5723;DHT22;2886;49.722;8.612;2023-04-06T09:37:51;13.30;39.90
5723;DHT22;2886;49.722;8.612;2023-04-06T09:40:18;13.40;40.20
5723;DHT22;2886;49.722;8.612;2023-04-06T09:42:48;13.60;40.10
5723;DHT22;2886;49.722;8.612;2023-04-06T09:45:14;13.80;39.60
5723;DHT22;2886;49.722;8.612;2023-04-06T09:47:43;14.00;39.10
5723;DHT22;2886;49.722;8.612;2023-04-06T09:50:13;14.00;38.40
5723;DHT22;2886;49.722;8.612;2023-04-06T09:52:50;14.00;38.90
5723;DHT22;2886;49.722;8.612;2023-04-06T09:55:28;14.20;38.80
5723;DHT22;2886;49.722;8.612;2023-04-06T09:58:04;14.40;39.00
5723;DHT22;2886;49.722;8.612;2023-04-06T10:00:32;14.40;37.60
5723;DHT22;2886;49.722;8.612;2023-04-06T10:05:59;14.40;37.90
5723;DHT22;2886;49.722;8.612;2023-04-06T10:08:28;14.50;37.30
5723;DHT22;2886;49.722;8.612;2023-04-06T10:10:55;14.70;37.00
5723;DHT22;2886;49.722;8.612;2023-04-06T10:13:23;14.60;36.50
5723;DHT22;2886;49.722;8.612;2023-04-06T10:15:51;14.60;38.00
5723;DHT22;2886;49.722;8.612;2023-04-06T10:18:17;14.70;38.40
5723;DHT22;2886;49.722;8.612;2023-04-06T10:20:52;14.90;36.80
5723;DHT22;2886;49.722;8.612;2023-04-06T10:23:48;14.90;35.90
5723;DHT22;2886;49.722;8.612;2023-04-06T10:26:15;14.90;35.70
5723;DHT22;2886;49.722;8.612;2023-04-06T10:28:43;14.80;35.60
5723;DHT22;2886;49.722;8.612;2023-04-06T10:31:09;14.70;34.20
5723;DHT22;2886;49.722;8.612;2023-04-06T10:33:35;14.80;34.90
5723;DHT22;2886;49.722;8.612;2023-04-06T10:36:14;14.90;36.40
5723;DHT22;2886;49.722;8.612;2023-04-06T10:38:41;14.80;35.90
5723;DHT22;2886;49.722;8.612;2023-04-06T10:41:10;14.90;35.40
5723;DHT22;2886;49.722;8.612;2023-04-06T10:43:38;15.00;36.60
5723;DHT22;2886;49.722;8.612;2023-04-06T10:46:06;15.00;36.20
5723;DHT22;2886;49.722;8.612;2023-04-06T10:48:43;15.10;35.30
5723;DHT22;2886;49.722;8.612;2023-04-06T10:51:13;15.30;34.90
5723;DHT22;2886;49.722;8.612;2023-04-06T10:53:41;15.40;33.90
5723;DHT22;2886;49.722;8.612;2023-04-06T10:56:15;15.40;34.20
5723;DHT22;2886;49.722;8.612;2023-04-06T10:58:47;15.40;33.70
5723;DHT22;2886;49.722;8.612;2023-04-06T11:01:17;15.00;35.30
5723;DHT22;2886;49.722;8.612;2023-04-06T11:03:48;15.10;35.20
5723;DHT22;2886;49.722;8.612;2023-04-06T11:06:25;15.30;34.90
5723;DHT22;2886;49.722;8.612;2023-04-06T11:08:52;15.50;32.20
5723;DHT22;2886;49.722;8.612;2023-04-06T11:11:20;15.60;33.90
5723;DHT22;2886;49.722;8.612;2023-04-06T11:16:24;15.50;33.30
5723;DHT22;2886;49.722;8.612;2023-04-06T11:18:56;15.30;33.10
5723;DHT22;2886;49.722;8.612;2023-04-06T11:21:48;15.20;32.50
5723;DHT22;2886;49.722;8.612;2023-04-06T11:24:24;15.20;33.30
5723;DHT22;2886;49.722;8.612;2023-04-06T11:26:54;15.40;35.60
5723;DHT22;2886;49.722;8.612;2023-04-06T11:29:23;15.40;32.80
5723;DHT22;2886;49.722;8.612;2023-04-06T11:32:00;15.50;30.70
5723;DHT22;2886;49.722;8.612;2023-04-06T11:34:27;15.30;30.10
5723;DHT22;2886;49.722;8.612;2023-04-06T11:36:58;15.10;29.50
5723;DHT22;2886;49.722;8.612;2023-04-06T11:39:26;15.20;30.80
5723;DHT22;2886;49.722;8.612;2023-04-06T11:42:02;15.40;30.00
5723;DHT22;2886;49.722;8.612;2023-04-06T11:44:38;15.40;29.90
5723;DHT22;2886;49.722;8.612;2023-04-06T11:47:09;15.60;30.70
5723;DHT22;2886;49.722;8.612;2023-04-06T11:49:41;15.70;29.80
5723;DHT22;2886;49.722;8.612;2023-04-06T11:52:27;15.70;28.90
5723;DHT22;2886;49.722;8.612;2023-04-06T11:54:54;15.60;29.40
5723;DHT22;2886;49.722;8.612;2023-04-06T11:57:22;15.70;28.90
5723;DHT22;2886;49.722;8.612;2023-04-06T11:59:51;15.70;29.00
5723;DHT22;2886;49.722;8.612;2023-04-06T12:02:17;15.80;29.00
5723;DHT22;2886;49.722;8.612;2023-04-06T12:04:43;16.00;29.50
5723;DHT22;2886;49.722;8.612;2023-04-06T12:07:09;16.20;28.90
5723;DHT22;2886;49.722;8.612;2023-04-06T12:09:35;16.50;28.40
5723;DHT22;2886;49.722;8.612;2023-04-06T12:12:02;16.50;27.40
5723;DHT22;2886;49.722;8.612;2023-04-06T12:14:28;16.50;27.40
5723;DHT22;2886;49.722;8.612;2023-04-06T12:16:56;16.50;27.50
5723;DHT22;2886;49.722;8.612;2023-04-06T12:19:22;16.30;28.30
5723;DHT22;2886;49.722;8.612;2023-04-06T12:21:51;16.30;28.00
5723;DHT22;2886;49.722;8.612;2023-04-06T12:24:17;16.40;28.40
5723;DHT22;2886;49.722;8.612;2023-04-06T12:26:43;16.50;28.40
5723;DHT22;2886;49.722;8.612;2023-04-06T12:29:08;16.40;28.40
5723;DHT22;2886;49.722;8.612;2023-04-06T12:31:35;16.10;28.30
5723;DHT22;2886;49.722;8.612;2023-04-06T12:34:02;16.10;28.80
5723;DHT22;2886;49.722;8.612;2023-04-06T12:36:28;16.00;29.30
5723;DHT22;2886;49.722;8.612;2023-04-06T12:38:55;16.30;29.60
5723;DHT22;2886;49.722;8.612;2023-04-06T12:41:21;16.40;28.50
5723;DHT22;2886;49.722;8.612;2023-04-06T12:43:48;16.20;28.30
5723;DHT22;2886;49.722;8.612;2023-04-06T12:46:15;16.20;28.00
5723;DHT22;2886;49.722;8.612;2023-04-06T12:48:41;16.10;27.90
5723;DHT22;2886;49.722;8.612;2023-04-06T12:51:06;15.90;29.10
5723;DHT22;2886;49.722;8.612;2023-04-06T12:53:35;15.70;28.70
5723;DHT22;2886;49.722;8.612;2023-04-06T12:56:02;15.60;28.60
5723;DHT22;2886;49.722;8.612;2023-04-06T12:58:28;15.70;29.10
5723;DHT22;2886;49.722;8.612;2023-04-06T13:00:55;15.80;28.70
5723;DHT22;2886;49.722;8.612;2023-04-06T13:03:22;15.80;28.80
5723;DHT22;2886;49.722;8.612;2023-04-06T13:05:51;15.90;28.10
5723;DHT22;2886;49.722;8.612;2023-04-06T13:08:18;15.90;28.70
5723;DHT22;2886;49.722;8.612;2023-04-06T13:10:48;15.80;28.60
5723;DHT22;2886;49.722;8.612;2023-04-06T13:13:15;15.70;28.40
5723;DHT22;2886;49.722;8.612;2023-04-06T13:15:41;15.60;28.10
5723;DHT22;2886;49.722;8.612;2023-04-06T13:18:07;15.50;28.40
5723;DHT22;2886;49.722;8.612;2023-04-06T13:20:33;15.40;29.30
5723;DHT22;2886;49.722;8.612;2023-04-06T13:22:59;15.40;29.70
5723;DHT22;2886;49.722;8.612;2023-04-06T13:25:26;15.00;29.50
5723;DHT22;2886;49.722;8.612;2023-04-06T13:27:51;15.00;29.80
5723;DHT22;2886;49.722;8.612;2023-04-06T13:30:17;15.20;29.90
5723;DHT22;2886;49.722;8.612;2023-04-06T13:32:43;15.30;29.90
5723;DHT22;2886;49.722;8.612;2023-04-06T13:35:09;15.30;29.50
5723;DHT22;2886;49.722;8.612;2023-04-06T13:37:35;15.30;29.40
5723;DHT22;2886;49.722;8.612;2023-04-06T13:40:02;15.40;29.30
5723;DHT22;2886;49.722;8.612;2023-04-06T13:42:28;15.40;29.20
5723;DHT22;2886;49.722;8.612;2023-04-06T13:44:54;15.50;29.00
5723;DHT22;2886;49.722;8.612;2023-04-06T13:47:19;15.50;28.80
5723;DHT22;2886;49.722;8.612;2023-04-06T13:49:46;15.50;29.00
5723;DHT22;2886;49.722;8.612;2023-04-06T13:52:12;15.60;29.00
5723;DHT22;2886;49.722;8.612;2023-04-06T13:54:38;15.60;28.90
5723;DHT22;2886;49.722;8.612;2023-04-06T13:57:04;15.60;28.70
5723;DHT22;2886;49.722;8.612;2023-04-06T13:59:34;15.70;28.80
5723;DHT22;2886;49.722;8.612;2023-04-06T14:02:04;15.80;28.80
5723;DHT22;2886;49.722;8.612;2023-04-06T14:04:30;15.80;28.20
5723;DHT22;2886;49.722;8.612;2023-04-06T14:06:59;15.80;28.70
5723;DHT22;2886;49.722;8.612;2023-04-06T14:09:25;15.70;29.10
5723;DHT22;2886;49.722;8.612;2023-04-06T14:11:51;15.80;28.90
5723;DHT22;2886;49.722;8.612;2023-04-06T14:14:16;15.80;28.80
5723;DHT22;2886;49.722;8.612;2023-04-06T14:16:42;15.80;28.90
5723;DHT22;2886;49.722;8.612;2023-04-06T14:19:12;15.80;28.90
5723;DHT22;2886;49.722;8.612;2023-04-06T14:21:38;15.80;29.00
5723;DHT22;2886;49.722;8.612;2023-04-06T14:24:06;15.90;28.70
5723;DHT22;2886;49.722;8.612;2023-04-06T14:26:32;16.00;29.20
5723;DHT22;2886;49.722;8.612;2023-04-06T14:29:01;15.90;29.00
5723;DHT22;2886;49.722;8.612;2023-04-06T14:31:27;15.90;28.60
5723;DHT22;2886;49.722;8.612;2023-04-06T14:33:53;15.80;28.10
5723;DHT22;2886;49.722;8.612;2023-04-06T14:36:20;15.70;28.70
5723;DHT22;2886;49.722;8.612;2023-04-06T14:38:46;15.60;28.60
5723;DHT22;2886;49.722;8.612;2023-04-06T14:41:16;15.70;28.70
5723;DHT22;2886;49.722;8.612;2023-04-06T14:43:42;15.60;28.80
5723;DHT22;2886;49.722;8.612;2023-04-06T14:46:08;15.60;28.60
5723;DHT22;2886;49.722;8.612;2023-04-06T14:48:35;15.60;29.10
5723;DHT22;2886;49.722;8.612;2023-04-06T14:51:00;15.60;29.30
5723;DHT22;2886;49.722;8.612;2023-04-06T14:53:26;15.70;29.10
5723;DHT22;2886;49.722;8.612;2023-04-06T14:55:53;15.80;28.50
5723;DHT22;2886;49.722;8.612;2023-04-06T14:58:19;15.60;28.70
5723;DHT22;2886;49.722;8.612;2023-04-06T15:00:45;15.60;28.80
5723;DHT22;2886;49.722;8.612;2023-04-06T15:03:11;15.60;28.80
5723;DHT22;2886;49.722;8.612;2023-04-06T15:05:37;15.70;28.30
5723;DHT22;2886;49.722;8.612;2023-04-06T15:08:03;15.80;28.70
5723;DHT22;2886;49.722;8.612;2023-04-06T15:10:32;15.80;28.40
5723;DHT22;2886;49.722;8.612;2023-04-06T15:12:58;15.90;28.50
5723;DHT22;2886;49.722;8.612;2023-04-06T15:15:24;16.00;28.90
5723;DHT22;2886;49.722;8.612;2023-04-06T15:17:50;16.00;28.00
5723;DHT22;2886;49.722;8.612;2023-04-06T15:20:16;16.00;28.20
5723;DHT22;2886;49.722;8.612;2023-04-06T15:22:41;16.00;27.30
5723;DHT22;2886;49.722;8.612;2023-04-06T15:25:07;15.90;28.10
5723;DHT22;2886;49.722;8.612;2023-04-06T15:27:33;15.90;28.40
5723;DHT22;2886;49.722;8.612;2023-04-06T15:29:59;15.90;28.20
5723;DHT22;2886;49.722;8.612;2023-04-06T15:32:24;15.80;28.50
5723;DHT22;2886;49.722;8.612;2023-04-06T15:34:50;15.80;28.10
5723;DHT22;2886;49.722;8.612;2023-04-06T15:37:16;15.60;28.20
5723;DHT22;2886;49.722;8.612;2023-04-06T15:39:42;15.50;28.10
5723;DHT22;2886;49.722;8.612;2023-04-06T15:42:08;15.30;28.20
5723;DHT22;2886;49.722;8.612;2023-04-06T15:44:34;15.00;29.40
5723;DHT22;2886;49.722;8.612;2023-04-06T15:47:00;14.90;29.70
5723;DHT22;2886;49.722;8.612;2023-04-06T15:49:25;14.90;30.80
5723;DHT22;2886;49.722;8.612;2023-04-06T15:51:51;14.90;30.40
5723;DHT22;2886;49.722;8.612;2023-04-06T15:54:17;14.90;29.50
5723;DHT22;2886;49.722;8.612;2023-04-06T15:56:45;14.90;29.80
5723;DHT22;2886;49.722;8.612;2023-04-06T15:59:11;14.90;30.10
5723;DHT22;2886;49.722;8.612;2023-04-06T16:01:37;14.90;29.90
5723;DHT22;2886;49.722;8.612;2023-04-06T16:04:06;14.90;30.00
5723;DHT22;2886;49.722;8.612;2023-04-06T16:06:32;14.90;30.30
5723;DHT22;2886;49.722;8.612;2023-04-06T16:08:57;14.90;30.50
5723;DHT22;2886;49.722;8.612;2023-04-06T16:11:23;14.90;30.40
5723;DHT22;2886;49.722;8.612;2023-04-06T16:13:49;14.80;30.60
5723;DHT22;2886;49.722;8.612;2023-04-06T16:16:14;14.80;30.60